Timeline UpdatesTrip UpdatesNews PostsPvt PostsTravel TipsAdmin PostsConv PostsFollowed PostsChat RequestsBlog PostsPNR Posts

Disclaimer
Search
 
 
Sat Aug 30, 2014 13:42:36 ISTHomeTrainsΣChainsAtlasPNRForumGalleryNewsFAQTripsMembersLoginFeedback
No Recent News for this Train
Other Trains in the News **new
Latest...
.
Tue Nov 19, 2013 (11:57PM)
⇐ Return Journey: Train# 56323

56324/Mangalore - Coimbatore Fast Passenger (UnReserved)

Nov 01 2013 (5:47AM)
Change Departure Station:
Change Arrival Station:
Post a Train Travel TipPost a Train Travel Tip **new
Post a Comment/Question/Picture/VideoPost a Comment/Question/Picture/Video
Pantry/Catering
???
RSA - Rake Sharing
RSA; with 56319/56320 Nagercoil Coimbatore Fast Passenger; Srivatsa Udupa
Rake/Coach Composition
LOCO=SLR=UR=UR=UR=UR=UR=UR=UR=UR=UR=UR=UR=UR=UR=UR=SLR
Loco
ED WDM 3D/3A or TNP/GOC WDM2
News    PNR    Forum    Time-Table    Availability    Fare Chart    Map    Arr/Dep History    Trips    Gallery    ΣChains    X/O    Timeline    
Travel Time: 1h 22m    8 halts    Distance: 67 km    Avg Speed: 49 km/hr
Type: Passenger
Zone: SR/Southern
Departs @ 08:29 (Avg 12m late)
Platform# ???
SMTWTFS
Manjeshwar/MJS 
Arrives @ 09:51 (Avg 23m late)
Platform# ???
SMTWTFS
Charvattur/CHV 

8 halts. 8 intermediate Stations between Manjeshwar and Charvattur

Show ALL intermediate Stations  Show Old Time-Table

#CodeStation NameX/OArrivesAvgDepartsAvgHaltPFDay#KmSpeedElevZoneAddress
1MAQMangalore Central (4)  -08:00+431-16.82114mSRMangalore 575001, Karnataka
2ULLUllal (2)  08:19+808:20+101m--1-10.37726mSRSomeshwar, Karnataka
3MJS»Manjeshwar (3)»  08:28+1208:29+121m--10.05912mSRManjeshwar, Kerala
4UAAUppala (2)X  08:36+1408:37+141m--16.95916mSRKasaragod District, Kerala
5KMQKumbala (2)  08:47+1708:48+201m--116.77323mSRKumbla, Kerala
6KGQKasaragod (3)  08:58+1709:00+172m--128.92918mSRTel: 04994 220800, Kerala
7KLADKalanad HaltXO  09:06-09:07-1m--131.8663mSRKasaragod, Kerala
8KQKKottikkulam (2)X  09:13+2009:14+211m--138.44225mSRBekal, Kerala
9BFRBekal Fort (2)X  09:21-09:22-1m--143.27511mSRPallikere, Kerala
10KZEKanhangad (3)  09:29+1909:31+192m--152.05115mSRKanhangad, Kerala
11NLENileshwar (2)  09:42+2109:43+211m--161.34012mSRNileswaram, Kerala
12CHV•Charvattur (3)•  09:51+2309:52+241m--166.56414mSRKasaragod district, Kerala
13TKQTrikkarippur  10:00-10:01-1m--175.15313mSRKasargod district, Kerala
14PAYPayyanur (3)X  10:08+1810:09+191m--181.3210mSRKannur District, Kerala
15ELMEzhimala  10:17-10:18-1m--184.17615mSRKannur District, Kerala
16PAZPayangadi (2)  10:25+2710:26+271m2192.95012mSRKannur District, Kerala
17KPQKannapuram (2)X  10:35+2710:36+271m21100.51209mSRKannur District, Kerala
18PPNSPappinisseri (2)  10:39-10:40-1m--1106.5198mSRKannur District, Kerala
19VAPMValapattanam (2)  10:45+2910:46+291m--1108.0258mSRKannur District, Kerala
20CQLChirakkal (2)X  10:51-10:52-1m--1110.11027mSRKannur district, Kerala
21CANKannur Main (4)  11:20+711:25+95m31114.96214mSRKannur Tel: 0497 2705555, Kerala
22TLYThalassery (2)X  11:45+1011:46+111m--1135.6509mSRKannur, Kerala
23MAHEMahe (2)  11:57+1711:58+181m--1144.94516mSRMahe, Puducherry
24MUKEMukkali  12:03+1512:04+151m--1148.64418mSRChombala, Kerala
25NAUNadapuram Road  12:09-12:10-1m--1152.36518mSRMadappallly, Kerala
26BDJVadakara (2)  12:15+1312:16+141m11157.79711mSRCalicut / Station Ph No : 0496-2524254, Kerala
27PYOLPayyoli (2)  12:22+012:23+01m--1167.44912mSRPayyoli, Kerala
28QLDKoyilandy (3)  12:38+2012:39+221m--1179.74111mSRQuilandi, Kerala
29CLTKozhikode Main (4)X  13:15+713:20+115m31204.02211mSRCalicut Tel: 0495 2701234, Kerala
30KULKallayi Kozhikode South (2)  13:25+2613:26+271m--1205.8610mSRCalicut, Kerala
31FKFerok (2)  13:34+2113:35+281m--1213.95719mSRFeroke, Kerala
32KNKadalundi (2)  13:40+4313:41+431m--1218.7828mSRKozhikode district, Kerala
33VLIVallikunnu (2)  13:45-13:46-1m--1224.23713mSRVallikkunnu, Kerala
34PGIParappangadi (2)  13:54+3313:55+351m--1229.15419mSRParappanangadi, Kerala
35TATanur (3)XO  14:04+4414:05+461m--1237.23711mSRMalappuram, Kerala
36TIRTirur (3)X  14:18+3014:20+312m31245.2579mSRTel: 0494 2422240, Kerala
37TUATirunnavaya (2)  14:29+5114:30+511m--1253.84310mSRThirunavaya, Kerala
38KTUKuttippuram (2)X  14:39+4214:40+451m--1260.36217mSRKuttippuram, Kerala
39PUMPallippuram  14:49+5914:50+591m--1269.6615mSRPalakkad, Kerala
40PTBPattambi (2)XO  14:59+5015:00+511m--1278.81221mSRPattambi, Kerala
41SRRShoranur Junction (7)X  16:00+1816:15+1915m51290.32926mSRShoranur ph.no 0466-2222913, Kerala
42MNURMannanur (2)  16:27+2216:28+231m--1296.14733mSRVaniamkulam Mannanur Rd, Kerala
43OTPOttappalam (2)  16:37+1916:38+201m--1303.13530mSROttapalam, Kerala
44PLPMPalappuram  16:44-16:45-1m--1306.74042mSRKayarampara-Meetna Rd, Kerala
45LDYLakkidi (2)X  16:51+1816:52+201m--1310.75835mSRPalakkad, Kerala
46MNYMankara (2)  17:00+2217:01+231m--1318.55665mSRPalakkad, Kerala
47PLLParli (2)  17:09+2217:10+241m--1325.92263mSRPalakkad, Kerala
48PGTPalakkad Junction (4)XO  17:35+1218:00+1225m31334.94784mSRPalghat Tel: 0491 2555231, Kerala
49KJKDKanjikode (2)X  18:17+1518:18+161m--1348.1460mSRPalakkad, Kerala
50WRAWalayarX  18:34+1718:35+171m--1360.533213mSRPalakkad, Kerala
51ETMDEttimadai (2)  18:51+1818:52+181m--1369.245313mSREttimadai, Tamil Nadu
52MDKIMadukaraiX  18:59+1719:00+171m--1374.533344mSRCoimbatore, Tamil Nadu
53PTJPodanur Junction (4)  19:18+1419:20+142m11384.323400mSRPodanur jtn ph.no. 0422-2410784, Tamil Nadu
54CBECoimbatore Main Junction (6)  19:35+8---1390.2-416mSRCoimbatore 641001, Tamil Nadu
Scroll to Top
Scroll to Bottom